Time,TemperatureF,DewpointF,PressureIn,WindDirection,WindDirectionDegrees,WindSpeedMPH,WindSpeedGustMPH,Humidity,HourlyPrecipIn,Conditions,Clouds,dailyrainin,SoftwareType,DateUTC
2013-06-19 00:11:00,52.4,44.0,30.01,East,95,0.0,4.0,74,0.00,,,0.00,weatherlink.com 1.10,2013-06-19 07:11:00,
2013-06-19 00:26:00,52.1,44.0,30.02,SSE,147,0.0,5.0,74,0.00,,,0.00,weatherlink.com 1.10,2013-06-19 07:26:00,
2013-06-19 00:41:00,51.4,44.0,30.01,ESE,109,0.0,3.0,76,0.00,,,0.00,weatherlink.com 1.10,2013-06-19 07:41:00,
2013-06-19 00:56:00,50.8,44.0,30.01,East,84,0.0,5.0,77,0.00,,,0.00,weatherlink.com 1.10,2013-06-19 07:56:00,
2013-06-19 01:11:00,51.0,44.0,30.01,ENE,70,0.0,4.0,77,0.00,,,0.00,weatherlink.com 1.10,2013-06-19 08:11:00,
2013-06-19 01:26:00,50.2,44.0,30.01,ENE,70,0.0,3.0,78,0.00,,,0.00,weatherlink.com 1.10,2013-06-19 08:26:00,
2013-06-19 01:41:00,49.4,44.0,30.00,ENE,70,0.0,1.0,80,0.00,,,0.00,weatherlink.com 1.10,2013-06-19 08:41:00,
2013-06-19 01:56:00,48.7,43.0,30.00,ENE,70,0.0,2.0,81,0.00,,,0.00,weatherlink.com 1.10,2013-06-19 08:56:00,
2013-06-19 02:12:00,48.3,43.0,30.01,SE,136,0.0,2.0,83,0.00,,,0.00,weatherlink.com 1.10,2013-06-19 09:12:00,
2013-06-19 02:27:00,48.1,43.0,30.01,SE,133,0.0,1.0,83,0.00,,,0.00,weatherlink.com 1.10,2013-06-19 09:27:00,
2013-06-19 02:42:00,47.7,43.0,30.01,SE,133,0.0,0.0,84,0.00,,,0.00,weatherlink.com 1.10,2013-06-19 09:42:00,
2013-06-19 02:57:00,47.3,43.0,30.01,SE,133,0.0,0.0,85,0.00,,,0.00,weatherlink.com 1.10,2013-06-19 09:57:00,
2013-06-19 03:12:00,46.9,43.0,30.01,SE,133,0.0,1.0,86,0.00,,,0.00,weatherlink.com 1.10,2013-06-19 10:12:00,
2013-06-19 03:27:00,46.7,43.0,30.01,SE,133,0.0,2.0,86,0.00,,,0.00,weatherlink.com 1.10,2013-06-19 10:27:00,
2013-06-19 03:42:00,46.4,43.0,30.01,SE,133,0.0,1.0,87,0.00,,,0.00,weatherlink.com 1.10,2013-06-19 10:42:00,
2013-06-19 03:57:00,46.2,43.0,30.01,SE,133,0.0,1.0,88,0.00,,,0.00,weatherlink.com 1.10,2013-06-19 10:57:00,
2013-06-19 04:12:00,46.4,43.0,30.01,SE,133,0.0,1.0,89,0.00,,,0.00,weatherlink.com 1.10,2013-06-19 11:12:00,
2013-06-19 04:27:00,46.2,43.0,30.01,SE,133,0.0,0.0,88,0.00,,,0.00,weatherlink.com 1.10,2013-06-19 11:27:00,
2013-06-19 04:42:00,46.0,43.0,30.01,SE,133,0.0,0.0,89,0.00,,,0.00,weatherlink.com 1.10,2013-06-19 11:42:00,
2013-06-19 04:57:00,45.7,43.0,30.02,SE,133,0.0,1.0,89,0.00,,,0.00,weatherlink.com 1.10,2013-06-19 11:57:00,
2013-06-19 05:12:00,45.4,43.0,30.02,SE,133,0.0,1.0,90,0.00,,,0.00,weatherlink.com 1.10,2013-06-19 12:12:00,
2013-06-19 05:27:00,45.2,43.0,30.02,SE,133,0.0,0.0,90,0.00,,,0.00,weatherlink.com 1.10,2013-06-19 12:27:00,
2013-06-19 05:42:00,45.2,43.0,30.01,SE,133,0.0,0.0,91,0.00,,,0.00,weatherlink.com 1.10,2013-06-19 12:42:00,
2013-06-19 05:57:00,45.1,43.0,30.02,SE,133,0.0,0.0,91,0.00,,,0.00,weatherlink.com 1.10,2013-06-19 12:57:00,
2013-06-19 06:12:00,44.9,43.0,30.02,SSE,147,0.0,0.0,91,0.00,,,0.00,weatherlink.com 1.10,2013-06-19 13:12:00,
2013-06-19 06:27:00,44.9,43.0,30.02,ESE,122,0.0,0.0,91,0.00,,,0.00,weatherlink.com 1.10,2013-06-19 13:27:00,
2013-06-19 06:42:00,45.5,43.0,30.03,ESE,122,0.0,0.0,92,0.00,,,0.00,weatherlink.com 1.10,2013-06-19 13:42:00,
2013-06-19 06:57:00,47.3,45.0,30.03,ESE,122,0.0,0.0,92,0.00,,,0.00,weatherlink.com 1.10,2013-06-19 13:57:00,
2013-06-19 07:12:00,49.7,47.0,30.03,ESE,122,0.0,0.0,91,0.00,,,0.00,weatherlink.com 1.10,2013-06-19 14:12:00,
2013-06-19 07:27:00,52.5,48.0,30.03,East,92,3.0,3.0,83,0.00,,,0.00,weatherlink.com 1.10,2013-06-19 14:27:00,
2013-06-19 07:42:00,54.5,48.0,30.04,ENE,76,0.0,2.0,79,0.00,,,0.00,weatherlink.com 1.10,2013-06-19 14:42:00,
2013-06-19 07:57:00,56.3,48.0,30.04,NE,45,0.0,2.0,73,0.00,,,0.00,weatherlink.com 1.10,2013-06-19 14:57:00,
2013-06-19 08:12:00,57.5,47.0,30.05,East,88,0.0,3.0,69,0.00,,,0.00,weatherlink.com 1.10,2013-06-19 15:12:00,
2013-06-19 08:27:00,58.4,48.0,30.05,NE,51,0.0,3.0,68,0.00,,,0.00,weatherlink.com 1.10,2013-06-19 15:27:00,
2013-06-19 08:42:00,58.9,47.0,30.05,SSE,150,1.0,4.0,66,0.00,,,0.00,weatherlink.com 1.10,2013-06-19 15:42:00,
2013-06-19 08:57:00,59.7,48.0,30.06,NE,44,0.0,4.0,66,0.00,,,0.00,weatherlink.com 1.10,2013-06-19 15:57:00,
2013-06-19 09:12:00,60.7,48.0,30.05,East,82,0.0,4.0,63,0.00,,,0.00,weatherlink.com 1.10,2013-06-19 16:12:00,
2013-06-19 09:27:00,61.1,47.0,30.06,NE,37,0.0,4.0,61,0.00,,,0.00,weatherlink.com 1.10,2013-06-19 16:27:00,
2013-06-19 09:42:00,63.5,47.0,30.05,ENE,66,1.0,4.0,56,0.00,,,0.00,weatherlink.com 1.10,2013-06-19 16:42:00,
2013-06-19 09:57:00,64.1,47.0,30.05,ENE,65,0.0,4.0,54,0.00,,,0.00,weatherlink.com 1.10,2013-06-19 16:57:00,
2013-06-19 10:12:00,64.8,46.0,30.05,SSW,193,3.0,6.0,51,0.00,,,0.00,weatherlink.com 1.10,2013-06-19 17:12:00,
2013-06-19 10:28:00,65.1,47.0,30.05,ENE,78,1.0,7.0,52,0.00,,,0.00,weatherlink.com 1.10,2013-06-19 17:28:00,
2013-06-19 10:43:00,65.1,44.0,30.05,ENE,76,3.0,7.0,47,0.00,,,0.00,weatherlink.com 1.10,2013-06-19 17:43:00,
2013-06-19 10:58:00,68.2,46.0,30.05,ENE,60,1.0,7.0,45,0.00,,,0.00,weatherlink.com 1.10,2013-06-19 17:58:00,
2013-06-19 11:13:00,68.0,46.0,30.05,ENE,67,0.0,4.0,45,0.00,,,0.00,weatherlink.com 1.10,2013-06-19 18:13:00,
2013-06-19 11:28:00,70.9,45.0,30.05,East,88,0.0,6.0,40,0.00,,,0.00,weatherlink.com 1.10,2013-06-19 18:28:00,
2013-06-19 11:43:00,69.9,45.0,30.05,NE,55,0.0,10.0,41,0.00,,,0.00,weatherlink.com 1.10,2013-06-19 18:43:00,
2013-06-19 11:58:00,72.3,45.0,30.05,ENE,60,0.0,4.0,38,0.00,,,0.00,weatherlink.com 1.10,2013-06-19 18:58:00,
2013-06-19 12:13:00,71.3,46.0,30.05,ENE,74,0.0,7.0,40,0.00,,,0.00,weatherlink.com 1.10,2013-06-19 19:13:00,
2013-06-19 12:28:00,71.3,44.0,30.05,NE,53,0.0,6.0,37,0.00,,,0.00,weatherlink.com 1.10,2013-06-19 19:28:00,
2013-06-19 12:43:00,72.4,44.0,30.04,ESE,103,1.0,4.0,36,0.00,,,0.00,weatherlink.com 1.10,2013-06-19 19:43:00,
2013-06-19 12:58:00,72.5,44.0,30.04,NE,38,1.0,6.0,36,0.00,,,0.00,weatherlink.com 1.10,2013-06-19 19:58:00,
2013-06-19 13:13:00,73.6,44.0,30.03,West,275,5.0,9.0,35,0.00,,,0.00,weatherlink.com 1.10,2013-06-19 20:13:00,
2013-06-19 13:28:00,74.4,45.0,30.03,ESE,105,3.0,7.0,35,0.00,,,0.00,weatherlink.com 1.10,2013-06-19 20:28:00,
2013-06-19 13:43:00,75.7,45.0,30.02,East,101,1.0,6.0,33,0.00,,,0.00,weatherlink.com 1.10,2013-06-19 20:43:00,
2013-06-19 13:58:00,77.1,44.0,30.02,ENE,66,2.0,6.0,31,0.00,,,0.00,weatherlink.com 1.10,2013-06-19 20:58:00,
2013-06-19 14:13:00,75.1,45.0,30.02,NE,44,3.0,7.0,34,0.00,,,0.00,weatherlink.com 1.10,2013-06-19 21:13:00,
2013-06-19 14:28:00,77.3,45.0,30.01,ESE,111,0.0,4.0,32,0.00,,,0.00,weatherlink.com 1.10,2013-06-19 21:28:00,
2013-06-19 14:43:00,75.4,44.0,30.01,East,93,1.0,7.0,33,0.00,,,0.00,weatherlink.com 1.10,2013-06-19 21:43:00,
2013-06-19 14:58:00,77.1,45.0,30.01,ENE,63,1.0,10.0,32,0.00,,,0.00,weatherlink.com 1.10,2013-06-19 21:58:00,
2013-06-19 15:13:00,76.2,46.0,30.01,East,86,0.0,7.0,34,0.00,,,0.00,weatherlink.com 1.10,2013-06-19 22:13:00,
2013-06-19 15:28:00,77.6,45.0,30.01,East,81,2.0,9.0,32,0.00,,,0.00,weatherlink.com 1.10,2013-06-19 22:28:00,
2013-06-19 15:43:00,78.1,47.0,30.00,ESE,115,1.0,5.0,33,0.00,,,0.00,weatherlink.com 1.10,2013-06-19 22:43:00,
2013-06-19 15:58:00,77.4,47.0,30.00,East,88,0.0,10.0,34,0.00,,,0.00,weatherlink.com 1.10,2013-06-19 22:58:00,
2013-06-19 16:13:00,77.8,46.0,30.00,East,86,2.0,5.0,33,0.00,,,0.00,weatherlink.com 1.10,2013-06-19 23:13:00,
2013-06-19 16:28:00,77.7,46.0,30.00,East,82,0.0,5.0,33,0.00,,,0.00,weatherlink.com 1.10,2013-06-19 23:28:00,
2013-06-19 16:43:00,78.0,46.0,29.99,ENE,67,3.0,7.0,32,0.00,,,0.00,weatherlink.com 1.10,2013-06-19 23:43:00,
2013-06-19 16:58:00,76.4,45.0,30.00,East,85,1.0,6.0,33,0.00,,,0.00,weatherlink.com 1.10,2013-06-19 23:58:00,
2013-06-19 17:13:00,76.4,46.0,29.99,East,82,1.0,7.0,34,0.00,,,0.00,weatherlink.com 1.10,2013-06-20 00:13:00,
2013-06-19 17:28:00,76.7,47.0,29.99,East,80,0.0,5.0,35,0.00,,,0.00,weatherlink.com 1.10,2013-06-20 00:28:00,
2013-06-19 17:43:00,75.6,46.0,29.99,East,82,1.0,4.0,35,0.00,,,0.00,weatherlink.com 1.10,2013-06-20 00:43:00,
2013-06-19 17:58:00,73.0,44.0,29.99,SW,222,3.0,9.0,36,0.00,,,0.00,weatherlink.com 1.10,2013-06-20 00:58:00,
2013-06-19 18:43:00,69.6,46.0,29.99,ENE,76,2.0,5.0,43,0.00,,,0.00,weatherlink.com 1.10,2013-06-20 01:43:00,
2013-06-19 18:58:00,69.1,47.0,29.99,East,82,1.0,3.0,46,0.00,,,0.00,weatherlink.com 1.10,2013-06-20 01:58:00,
2013-06-19 19:13:00,67.9,47.0,30.00,East,82,0.0,3.0,48,0.00,,,0.00,weatherlink.com 1.10,2013-06-20 02:13:00,
2013-06-19 19:28:00,66.6,47.0,30.00,SSW,208,0.0,3.0,49,0.00,,,0.00,weatherlink.com 1.10,2013-06-20 02:28:00,
2013-06-19 19:43:00,65.8,48.0,30.01,East,86,0.0,3.0,52,0.00,,,0.00,weatherlink.com 1.10,2013-06-20 02:43:00,
2013-06-19 19:58:00,65.1,47.0,30.00,East,91,0.0,4.0,52,0.00,,,0.00,weatherlink.com 1.10,2013-06-20 02:58:00,
2013-06-19 20:13:00,63.9,47.0,30.00,ENE,73,1.0,2.0,54,0.00,,,0.00,weatherlink.com 1.10,2013-06-20 03:13:00,
2013-06-19 20:28:00,62.6,47.0,30.00,ENE,73,0.0,3.0,57,0.00,,,0.00,weatherlink.com 1.10,2013-06-20 03:28:00,
2013-06-19 20:43:00,61.8,47.0,30.01,ENE,71,0.0,6.0,59,0.00,,,0.00,weatherlink.com 1.10,2013-06-20 03:43:00,
2013-06-19 20:58:00,61.1,47.0,30.01,ESE,102,0.0,2.0,60,0.00,,,0.00,weatherlink.com 1.10,2013-06-20 03:58:00,
2013-06-19 21:13:00,60.1,47.0,30.01,East,86,0.0,5.0,62,0.00,,,0.00,weatherlink.com 1.10,2013-06-20 04:13:00,
2013-06-19 21:28:00,59.6,47.0,30.01,East,80,1.0,3.0,63,0.00,,,0.00,weatherlink.com 1.10,2013-06-20 04:28:00,
2013-06-19 21:43:00,58.8,46.0,30.02,NE,55,3.0,3.0,63,0.00,,,0.00,weatherlink.com 1.10,2013-06-20 04:43:00,
2013-06-19 21:58:00,58.0,46.0,30.02,ENE,66,1.0,3.0,64,0.00,,,0.00,weatherlink.com 1.10,2013-06-20 04:58:00,
2013-06-19 22:13:00,57.0,45.0,30.02,ENE,66,0.0,3.0,65,0.00,,,0.00,weatherlink.com 1.10,2013-06-20 05:13:00,
2013-06-19 22:28:00,55.6,45.0,30.02,ENE,68,0.0,1.0,68,0.00,,,0.00,weatherlink.com 1.10,2013-06-20 05:28:00,
2013-06-19 22:43:00,54.4,45.0,30.03,ENE,68,0.0,0.0,70,0.00,,,0.00,weatherlink.com 1.10,2013-06-20 05:43:00,
2013-06-19 22:58:00,53.7,44.0,30.02,ENE,68,0.0,0.0,71,0.00,,,0.00,weatherlink.com 1.10,2013-06-20 05:58:00,
2013-06-19 23:13:00,52.7,44.0,30.02,ENE,68,0.0,1.0,73,0.00,,,0.00,weatherlink.com 1.10,2013-06-20 06:13:00,
2013-06-19 23:28:00,52.0,44.0,30.02,ENE,68,0.0,0.0,75,0.00,,,0.00,weatherlink.com 1.10,2013-06-20 06:28:00,
2013-06-19 23:43:00,51.3,44.0,30.02,ENE,68,0.0,0.0,76,0.00,,,0.00,weatherlink.com 1.10,2013-06-20 06:43:00,
2013-06-19 23:58:00,50.6,44.0,30.02,ENE,68,0.0,0.0,77,0.00,,,0.00,weatherlink.com 1.10,2013-06-20 06:58:00,